createdAt,value
2022-08-03T00:03:04.511Z,44.5
2022-08-03T00:13:04.554Z,44.5
2022-08-03T00:23:04.461Z,45
2022-08-03T00:33:04.548Z,44.5
2022-08-03T00:43:04.684Z,45
2022-08-03T00:53:04.575Z,44.5
2022-08-03T01:03:04.641Z,46
2022-08-03T01:13:04.548Z,46
2022-08-03T01:23:04.638Z,46
2022-08-03T01:33:05.074Z,46
2022-08-03T01:43:04.649Z,46
2022-08-03T01:53:04.539Z,46
2022-08-03T02:03:04.641Z,46
2022-08-03T02:13:04.725Z,46
2022-08-03T02:23:04.655Z,46
2022-08-03T02:33:04.753Z,46
2022-08-03T02:43:04.623Z,46
2022-08-03T02:53:04.725Z,46
2022-08-03T03:03:04.626Z,46
2022-08-03T03:13:04.723Z,46
2022-08-03T03:23:04.821Z,46
2022-08-03T03:33:04.713Z,46
2022-08-03T03:43:04.798Z,46
2022-08-03T03:53:04.733Z,46
2022-08-03T04:03:04.840Z,46
2022-08-03T04:13:04.691Z,46
2022-08-03T04:23:04.800Z,46
2022-08-03T04:33:04.701Z,46
2022-08-03T04:43:04.801Z,46
2022-08-03T04:53:04.894Z,46
2022-08-03T05:03:04.787Z,46
2022-08-03T05:13:04.891Z,46
2022-08-03T05:23:04.823Z,46
2022-08-03T05:33:04.918Z,46
2022-08-03T05:43:04.793Z,46
2022-08-03T05:53:04.899Z,46
2022-08-03T06:03:04.795Z,46
2022-08-03T06:13:04.899Z,46
2022-08-03T06:23:04.987Z,46
2022-08-03T06:33:04.884Z,44.5
2022-08-03T06:43:05.576Z,42.5
2022-08-03T06:53:04.911Z,41
2022-08-03T07:03:05.015Z,36.5
2022-08-03T07:13:04.885Z,34
2022-08-03T07:23:04.999Z,34
2022-08-03T07:33:04.906Z,30.5
2022-08-03T07:43:05.012Z,34
2022-08-03T07:53:04.927Z,31.5
2022-08-03T08:03:05.023Z,30.5
2022-08-03T08:13:05.142Z,35.5
2022-08-03T08:23:08.924Z,35.5
2022-08-03T08:33:05.110Z,29.5
2022-08-03T08:43:05.021Z,29
2022-08-03T08:53:05.109Z,25
2022-08-03T09:03:05.019Z,25
2022-08-03T09:13:05.100Z,26
2022-08-03T09:23:24.886Z,28.5
2022-08-03T09:33:05.125Z,36
2022-08-03T09:43:05.223Z,37
2022-08-03T09:53:05.122Z,35
2022-08-03T10:03:05.238Z,34.5
2022-08-03T10:13:05.132Z,31.5
2022-08-03T10:23:05.198Z,40
2022-08-03T10:33:05.109Z,42
2022-08-03T10:43:05.195Z,42
2022-08-03T10:53:05.092Z,42
2022-08-03T11:03:05.348Z,42
2022-08-03T11:13:05.283Z,42
2022-08-03T11:23:05.204Z,42
2022-08-03T11:33:05.283Z,42
2022-08-03T11:43:05.200Z,42.5
2022-08-03T11:53:05.309Z,44
2022-08-03T12:03:05.271Z,42.5
2022-08-03T12:13:05.282Z,42.5
2022-08-03T12:23:05.178Z,42.5
2022-08-03T12:33:05.275Z,43.5
2022-08-03T12:43:05.361Z,42.5
2022-08-03T12:53:05.306Z,42.5
2022-08-03T13:03:27.625Z,44
2022-08-03T13:13:05.297Z,42.5
2022-08-03T13:23:05.391Z,42.5
2022-08-03T13:33:05.257Z,44
2022-08-03T13:43:05.347Z,42.5
2022-08-03T13:53:05.512Z,44
2022-08-03T14:03:13.026Z,42.5
2022-08-03T14:13:05.462Z,42
2022-08-03T14:23:05.376Z,42
2022-08-03T14:33:05.466Z,42
2022-08-03T14:43:05.341Z,42
2022-08-03T14:53:05.451Z,42
2022-08-03T15:03:05.402Z,42
2022-08-03T15:13:05.427Z,42
2022-08-03T15:23:05.527Z,42
2022-08-03T15:33:05.427Z,42
2022-08-03T15:43:05.539Z,42
2022-08-03T15:53:05.461Z,42
2022-08-03T16:03:05.571Z,42
2022-08-03T16:13:05.425Z,42
2022-08-03T16:23:10.376Z,42.5
2022-08-03T16:33:05.621Z,44
2022-08-03T16:43:05.515Z,42.5
2022-08-03T16:53:05.623Z,42.5
2022-08-03T17:03:12.661Z,43.5
2022-08-03T17:13:05.630Z,44
2022-08-03T17:23:05.537Z,42.5
2022-08-03T17:33:05.639Z,42.5
2022-08-03T17:43:44.261Z,42.5
2022-08-03T17:53:06.959Z,42.5
2022-08-03T18:03:05.751Z,42.5
2022-08-03T18:13:10.381Z,44
2022-08-03T18:23:05.876Z,44
2022-08-03T18:34:15.889Z,44
2022-08-03T18:43:08.084Z,44
2022-08-03T18:53:11.421Z,44
2022-08-03T19:03:06.199Z,44
2022-08-03T19:13:11.422Z,44
2022-08-03T19:23:06.530Z,44
2022-08-03T19:33:05.907Z,44
2022-08-03T19:43:05.687Z,44
2022-08-03T19:53:05.783Z,44
2022-08-03T20:03:05.681Z,46
2022-08-03T20:13:05.777Z,46
2022-08-03T20:23:06.754Z,46
2022-08-03T20:33:05.999Z,46
2022-08-03T20:43:05.859Z,46
2022-08-03T20:53:06.051Z,46
2022-08-03T21:03:05.875Z,46
2022-08-03T21:13:16.660Z,46
2022-08-03T21:23:05.878Z,47.5
2022-08-03T21:33:05.777Z,46.5
2022-08-03T21:43:05.872Z,48
2022-08-03T21:53:05.770Z,48
2022-08-03T22:03:12.001Z,48
2022-08-03T22:13:05.783Z,46.5
2022-08-03T22:23:05.882Z,48
2022-08-03T22:33:08.370Z,48
2022-08-03T22:43:05.894Z,48
2022-08-03T22:53:05.996Z,48
2022-08-03T23:03:05.923Z,48
2022-08-03T23:13:05.954Z,48
2022-08-03T23:23:05.856Z,48
2022-08-03T23:33:05.954Z,48
2022-08-03T23:43:05.849Z,48
2022-08-03T23:53:05.956Z,48
